Time;durP1;ratioP1;P1;durP2;ratioP2;P2;SDS_P1;SDS_P2;PMS_P1;PMS_P2;Temp;Humidity;BMP_temperature;BMP_pressure;BME280_temperature;BME280_humidity;BME280_pressure;Samples;Min_cycle;Max_cycle;Signal;HPM_P1;HPM_P2
2022/01/03 00:01:45;;;;;;;12.95;2.20;;;10.10;99.90;;;;;;5053958;28;20070;-86
2022/01/03 00:04:12;;;;;;;;;;;10.10;99.90;;;;;;5055776;28;20033;-88
2022/01/03 00:06:41;;;;;;;6.35;1.67;;;10.10;99.90;;;;;;5033433;28;19909;-86
2022/01/03 00:09:09;;;;;;;10.30;2.17;;;10.10;99.90;;;;;;5051094;28;20383;-85
2022/01/03 00:11:35;;;;;;;8.55;1.58;;;10.10;99.90;;;;;;5051093;28;20029;-85
2022/01/03 00:14:02;;;;;;;8.65;1.77;;;10.10;99.90;;;;;;5049389;28;20166;-85
2022/01/03 00:16:29;;;;;;;9.82;1.77;;;10.10;99.90;;;;;;5032833;28;20112;-84
2022/01/03 00:18:55;;;;;;;7.43;1.65;;;10.10;99.90;;;;;;5033577;28;20123;-84
2022/01/03 00:21:29;;;;;;;12.02;1.65;;;10.10;99.90;;;;;;5051444;28;20164;-84
2022/01/03 00:24:06;;;;;;;9.43;1.67;;;10.10;99.90;;;;;;5049576;28;20409;-85
2022/01/03 00:26:34;;;;;;;3.97;1.92;;;10.10;99.90;;;;;;5049014;28;20111;-85
2022/01/03 00:29:15;;;;;;;13.52;1.83;;;10.10;99.90;;;;;;5049263;28;20028;-85
2022/01/03 00:31:42;;;;;;;5.47;1.45;;;10.20;99.90;;;;;;5049347;28;20111;-84
2022/01/03 00:34:11;;;;;;;12.60;2.17;;;10.10;99.90;;;;;;5049889;28;20037;-84
2022/01/03 00:36:37;;;;;;;11.35;1.98;;;10.10;99.90;;;;;;5050366;28;20025;-84
2022/01/03 00:39:08;;;;;;;12.95;1.85;;;10.10;99.90;;;;;;5039896;28;20029;-85
2022/01/03 00:41:39;;;;;;;8.90;1.40;;;10.20;99.90;;;;;;5051843;28;20067;-86
2022/01/03 00:44:05;;;;;;;6.80;1.02;;;10.20;99.90;;;;;;5050468;28;20032;-86
2022/01/03 00:46:32;;;;;;;1.55;0.70;;;10.10;99.90;;;;;;5050875;28;20033;-84
2022/01/03 00:49:00;;;;;;;6.20;0.90;;;9.70;99.90;;;;;;5036402;28;20029;-86
2022/01/03 00:51:26;;;;;;;6.57;0.73;;;9.30;99.90;;;;;;5050325;28;20036;-84
2022/01/03 00:53:51;;;;;;;14.32;1.10;;;8.80;99.90;;;;;;5050075;28;20037;-84
2022/01/03 00:56:29;;;;;;;3.88;0.70;;;8.30;99.90;;;;;;5028176;28;20175;-84
2022/01/03 00:59:03;;;;;;;9.38;1.00;;;7.90;99.90;;;;;;5032760;28;20406;-84
2022/01/03 01:01:34;;;;;;;6.80;0.90;;;7.70;99.90;;;;;;5048759;28;20260;-85
2022/01/03 01:04:02;;;;;;;8.90;0.70;;;7.70;99.90;;;;;;5048692;28;20432;-85
2022/01/03 01:06:33;;;;;;;8.10;0.60;;;7.70;99.90;;;;;;5031228;28;20037;-84
2022/01/03 01:09:01;;;;;;;;;;;7.70;99.90;;;;;;5050783;28;20131;-84
2022/01/03 01:11:29;;;;;;;5.85;0.90;;;7.70;99.90;;;;;;5049119;28;19920;-84
2022/01/03 01:13:56;;;;;;;3.63;0.57;;;7.70;99.90;;;;;;5048639;28;20024;-86
2022/01/03 01:16:23;;;;;;;5.05;0.55;;;7.60;99.90;;;;;;5050139;28;20021;-84
2022/01/03 01:18:49;;;;;;;3.58;0.38;;;7.60;99.90;;;;;;5032392;28;20029;-83
2022/01/03 01:21:16;;;;;;;3.03;0.60;;;7.60;99.90;;;;;;5048576;28;20345;-83
2022/01/03 01:23:42;;;;;;;3.92;0.73;;;7.60;99.90;;;;;;5031949;28;20499;-86
2022/01/03 01:28:53;;;;;;;7.70;0.80;;;7.50;99.90;;;;;;5051432;28;20068;-85
2022/01/03 01:31:22;;;;;;;7.97;1.58;;;7.50;99.90;;;;;;5032771;28;20068;-84
2022/01/03 01:33:52;;;;;;;2.88;0.50;;;7.60;99.90;;;;;;5049777;28;20040;-85
2022/01/03 01:36:22;;;;;;;4.55;1.00;;;7.60;99.90;;;;;;5049899;28;20069;-85
2022/01/03 01:38:51;;;;;;;7.55;0.80;;;7.60;99.90;;;;;;5033463;28;20078;-86
2022/01/03 01:41:19;;;;;;;3.08;0.70;;;7.60;99.90;;;;;;5033661;28;20485;-85
2022/01/03 01:43:47;;;;;;;2.83;0.63;;;7.60;99.90;;;;;;5051030;28;20174;-85
2022/01/03 01:46:17;;;;;;;7.38;1.38;;;7.70;99.90;;;;;;5048779;28;20104;-86
2022/01/03 01:48:45;;;;;;;10.50;1.08;;;7.70;99.90;;;;;;5050717;28;20044;-85
2022/01/03 01:51:13;;;;;;;7.13;0.70;;;7.70;99.90;;;;;;5033174;28;20037;-85
2022/01/03 01:53:48;;;;;;;3.83;0.60;;;7.80;99.90;;;;;;5037402;28;20501;-84
2022/01/03 01:57:00;;;;;;;6.07;0.77;;;7.80;99.90;;;;;;5060661;28;20033;-82
2022/01/03 02:00:14;;;;;;;6.15;0.80;;;7.80;99.90;;;;;;5054783;28;20327;-84
2022/01/03 02:03:17;;;;;;;4.68;0.70;;;7.80;99.90;;;;;;5043783;28;20047;-83
2022/01/03 02:05:47;;;;;;;13.68;0.90;;;7.80;99.90;;;;;;5047357;28;20558;-83
2022/01/03 02:08:17;;;;;;;8.77;0.70;;;7.80;99.90;;;;;;5049093;28;20032;-85
2022/01/03 02:11:04;;;;;;;2.80;0.50;;;7.90;99.90;;;;;;5047400;28;20041;-83
2022/01/03 02:13:30;;;;;;;3.83;0.82;;;7.90;99.90;;;;;;5047574;28;20029;-84
2022/01/03 02:16:03;;;;;;;3.80;0.70;;;7.80;99.90;;;;;;5047953;28;20629;-83
2022/01/03 02:18:30;;;;;;;3.15;0.60;;;7.80;99.90;;;;;;5012350;28;20444;-84
2022/01/03 02:20:57;;;;;;;2.67;0.63;;;7.80;99.90;;;;;;5038105;28;20605;-83
2022/01/03 02:23:23;;;;;;;5.40;0.45;;;7.80;99.90;;;;;;5023594;28;20098;-84
2022/01/03 02:25:49;;;;;;;7.53;1.00;;;7.70;99.90;;;;;;5030586;28;20581;-83
2022/01/03 02:28:20;;;;;;;3.00;0.98;;;7.70;99.90;;;;;;5031171;28;20565;-83
2022/01/03 02:30:46;;;;;;;4.03;0.70;;;7.70;99.90;;;;;;5048782;28;20028;-84
2022/01/03 02:33:12;;;;;;;5.20;1.35;;;7.70;99.90;;;;;;5047399;28;20158;-85
2022/01/03 02:35:40;;;;;;;4.75;1.20;;;7.70;99.90;;;;;;5046008;28;20112;-86
2022/01/03 02:38:08;;;;;;;1.65;0.55;;;7.70;99.90;;;;;;5034499;28;20048;-83
2022/01/03 02:40:34;;;;;;;4.78;0.98;;;7.70;99.90;;;;;;5052762;28;20120;-83
2022/01/03 02:42:59;;;;;;;2.65;0.77;;;7.70;99.90;;;;;;5029743;28;20609;-83
2022/01/03 02:45:26;;;;;;;7.47;1.05;;;7.70;99.90;;;;;;5047876;28;20060;-84
2022/01/03 02:48:00;;;;;;;5.25;1.10;;;7.80;99.90;;;;;;5051107;28;20036;-83
2022/01/03 02:50:28;;;;;;;6.78;0.90;;;7.70;99.90;;;;;;5019206;28;20178;-84
2022/01/03 02:52:55;;;;;;;7.50;1.38;;;7.70;99.90;;;;;;5050865;28;20115;-84
2022/01/03 02:55:24;;;;;;;14.43;1.75;;;7.70;99.90;;;;;;5048918;28;20025;-84
2022/01/03 02:57:52;;;;;;;7.45;1.05;;;7.70;99.90;;;;;;5051597;28;20021;-85
2022/01/03 03:00:23;;;;;;;6.30;1.20;;;7.70;99.90;;;;;;5034319;28;20029;-84
2022/01/03 03:02:49;;;;;;;8.88;1.42;;;7.70;99.90;;;;;;5052156;28;20025;-84
2022/01/03 03:05:15;;;;;;;11.25;1.10;;;7.70;99.90;;;;;;5050605;28;20362;-84
2022/01/03 03:07:41;;;;;;;5.93;1.17;;;7.80;99.90;;;;;;5050763;28;20060;-83
2022/01/03 03:10:16;;;;;;;6.43;1.40;;;7.80;99.90;;;;;;5051142;28;20033;-86
2022/01/03 03:12:43;;;;;;;8.20;1.17;;;7.90;99.90;;;;;;5051272;28;20037;-85
2022/01/03 03:15:10;;;;;;;8.98;1.45;;;7.90;99.90;;;;;;5034090;28;20112;-83
2022/01/03 03:17:36;;;;;;;12.23;1.30;;;8.00;99.90;;;;;;5030676;28;20132;-84
2022/01/03 03:20:12;;;;;;;7.97;1.30;;;8.00;99.90;;;;;;5031304;28;20037;-84
2022/01/03 03:22:39;;;;;;;7.65;1.00;;;8.10;99.90;;;;;;5045097;28;20029;-84
2022/01/03 03:25:14;;;;;;;10.73;1.38;;;8.10;99.90;;;;;;5030842;28;20820;-84
2022/01/03 03:27:44;;;;;;;8.48;1.60;;;8.10;99.90;;;;;;5039298;28;20033;-85
2022/01/03 03:30:32;;;;;;;12.05;2.50;;;8.20;99.90;;;;;;5051196;28;20032;-83
2022/01/03 03:33:11;;;;;;;11.00;2.15;;;8.20;99.90;;;;;;5035256;28;20033;-85
2022/01/03 03:35:36;;;;;;;14.88;1.70;;;8.30;99.90;;;;;;5050178;28;20194;-86
2022/01/03 03:38:03;;;;;;;9.68;1.48;;;8.30;99.90;;;;;;5050525;28;20124;-86
2022/01/03 03:40:29;;;;;;;7.55;1.83;;;8.30;99.90;;;;;;5051100;28;20482;-84
2022/01/03 03:42:55;;;;;;;11.40;2.00;;;8.40;99.90;;;;;;5050864;28;20040;-84
2022/01/03 03:45:21;;;;;;;10.27;1.20;;;8.40;99.90;;;;;;5034152;28;20478;-87
2022/01/03 03:47:47;;;;;;;14.77;1.92;;;8.40;99.90;;;;;;5033396;28;20405;-85
2022/01/03 03:50:13;;;;;;;7.32;1.33;;;8.40;99.90;;;;;;5050900;28;20025;-85
2022/01/03 03:52:38;;;;;;;16.65;1.65;;;8.40;99.90;;;;;;5050859;28;20116;-84
2022/01/03 03:55:05;;;;;;;18.95;2.63;;;8.40;99.90;;;;;;5055871;28;20037;-84
2022/01/03 03:57:33;;;;;;;15.20;1.60;;;8.40;99.90;;;;;;5048993;28;20044;-85
2022/01/03 04:00:00;;;;;;;9.18;1.17;;;8.50;99.90;;;;;;5049945;28;20052;-84
2022/01/03 04:02:28;;;;;;;13.65;1.77;;;8.50;99.90;;;;;;5049394;28;20028;-84
2022/01/03 04:04:53;;;;;;;12.90;1.42;;;8.50;99.90;;;;;;5017800;28;20032;-84
2022/01/03 04:07:19;;;;;;;12.70;1.77;;;8.60;99.90;;;;;;5032921;28;20033;-83
2022/01/03 04:09:45;;;;;;;16.08;1.63;;;8.60;99.90;;;;;;5033067;28;20486;-84
2022/01/03 04:12:10;;;;;;;22.60;1.85;;;8.60;99.90;;;;;;5050717;28;20033;-83
2022/01/03 04:14:36;;;;;;;10.38;1.23;;;8.60;99.90;;;;;;5049619;28;20033;-85
2022/01/03 04:17:01;;;;;;;9.73;1.85;;;8.60;99.90;;;;;;5049268;28;20033;-85
2022/01/03 04:19:27;;;;;;;10.07;1.60;;;8.70;99.90;;;;;;5033068;28;20073;-84
2022/01/03 04:21:54;;;;;;;12.63;1.58;;;8.70;99.90;;;;;;5049179;28;20048;-84
2022/01/03 04:24:19;;;;;;;10.73;2.22;;;8.60;99.90;;;;;;5049329;28;20029;-84
2022/01/03 04:26:45;;;;;;;14.48;2.63;;;8.70;99.90;;;;;;5048457;28;20547;-85
2022/01/03 04:29:11;;;;;;;17.45;2.08;;;8.70;99.90;;;;;;5049554;28;20067;-84
2022/01/03 04:31:38;;;;;;;15.18;2.08;;;8.70;99.90;;;;;;5010191;28;20033;-84
2022/01/03 04:34:04;;;;;;;8.15;1.27;;;8.70;99.90;;;;;;5024166;28;20124;-84
2022/01/03 04:36:32;;;;;;;13.10;1.63;;;8.80;99.90;;;;;;5048467;28;20429;-84
2022/01/03 04:38:58;;;;;;;13.23;1.88;;;8.80;99.90;;;;;;5027778;28;20091;-84
2022/01/03 04:41:24;;;;;;;13.55;1.85;;;8.80;99.90;;;;;;5050569;28;20055;-84
2022/01/03 04:43:50;;;;;;;11.73;2.08;;;8.80;99.90;;;;;;5049370;28;20040;-84
2022/01/03 04:46:18;;;;;;;13.38;1.88;;;8.80;99.90;;;;;;5048214;28;20393;-84
2022/01/03 04:48:44;;;;;;;12.65;2.03;;;8.80;99.90;;;;;;5048760;28;20064;-84
2022/01/03 04:51:13;;;;;;;18.48;1.63;;;8.90;99.90;;;;;;5032042;28;20025;-85
2022/01/03 04:53:42;;;;;;;11.30;1.75;;;8.90;99.90;;;;;;5058245;22;20032;-83
2022/01/03 04:56:13;;;;;;;11.05;1.75;;;8.90;99.90;;;;;;4992094;28;20116;-84
2022/01/03 04:58:39;;;;;;;9.35;1.80;;;8.90;99.90;;;;;;4992990;28;20026;-83
2022/01/03 05:01:06;;;;;;;15.35;1.55;;;8.90;99.90;;;;;;4999686;28;20045;-83
2022/01/03 05:03:32;;;;;;;13.15;1.55;;;8.90;99.90;;;;;;4996692;28;20518;-84
2022/01/03 05:06:01;;;;;;;10.68;1.50;;;8.90;99.90;;;;;;4993176;28;20483;-83
2022/01/03 05:08:35;;;;;;;19.63;2.93;;;8.80;99.90;;;;;;4991036;28;20026;-84
2022/01/03 05:11:02;;;;;;;8.85;1.33;;;8.80;99.90;;;;;;4990125;28;20030;-83
2022/01/03 05:13:29;;;;;;;18.58;2.28;;;8.80;99.90;;;;;;4974228;28;20031;-83
2022/01/03 05:15:57;;;;;;;9.00;1.30;;;8.80;99.90;;;;;;4973388;28;20038;-83
2022/01/03 05:18:25;;;;;;;9.00;1.42;;;8.80;99.90;;;;;;4970628;28;20122;-84
2022/01/03 05:20:51;;;;;;;7.43;1.35;;;8.80;99.90;;;;;;4960781;28;20043;-84
2022/01/03 05:23:17;;;;;;;13.60;2.10;;;8.80;99.90;;;;;;5002285;28;20034;-83
2022/01/03 05:25:43;;;;;;;17.38;2.22;;;8.80;99.90;;;;;;4980998;28;20126;-84
2022/01/03 05:28:09;;;;;;;10.90;1.63;;;8.80;99.90;;;;;;4989216;28;20462;-83
2022/01/03 05:30:34;;;;;;;7.65;1.45;;;8.80;99.90;;;;;;4991750;28;20470;-84
2022/01/03 05:33:00;;;;;;;14.00;1.65;;;8.80;99.90;;;;;;4972524;28;20026;-83
2022/01/03 05:35:29;;;;;;;14.35;2.00;;;8.80;99.90;;;;;;4990218;28;20105;-83
2022/01/03 05:37:55;;;;;;;14.88;1.77;;;8.80;99.90;;;;;;4973735;28;20495;-84
2022/01/03 05:40:23;;;;;;;13.95;1.73;;;8.80;99.90;;;;;;4973300;28;20034;-83
2022/01/03 05:42:49;;;;;;;16.92;1.60;;;8.80;99.90;;;;;;4989156;28;20027;-83
2022/01/03 05:45:14;;;;;;;12.43;1.42;;;8.80;99.90;;;;;;4988911;28;20414;-83
2022/01/03 05:47:44;;;;;;;11.07;1.70;;;8.80;99.90;;;;;;4989174;28;20030;-83
2022/01/03 05:50:11;;;;;;;15.15;1.67;;;8.80;99.90;;;;;;4989712;28;20040;-83
2022/01/03 05:52:37;;;;;;;18.25;2.08;;;8.80;99.90;;;;;;4989178;28;20046;-83
2022/01/03 05:55:04;;;;;;;9.05;1.45;;;8.80;99.90;;;;;;4988655;28;20030;-83
2022/01/03 05:57:30;;;;;;;10.73;1.80;;;8.80;99.90;;;;;;4989014;28;20050;-83
2022/01/03 05:59:56;;;;;;;23.08;2.45;;;8.80;99.90;;;;;;4989430;28;20039;-83
2022/01/03 06:02:23;;;;;;;16.25;1.67;;;8.80;99.90;;;;;;4989215;28;20034;-84
2022/01/03 06:07:17;;;;;;;15.82;1.52;;;8.80;99.90;;;;;;4989142;28;20030;-82
2022/01/03 06:09:47;;;;;;;10.48;2.10;;;8.80;99.90;;;;;;4973685;28;20465;-83
2022/01/03 06:12:13;;;;;;;19.38;2.00;;;8.80;99.90;;;;;;4994536;28;20484;-83
2022/01/03 06:14:39;;;;;;;16.88;1.92;;;8.80;99.90;;;;;;4994097;28;20113;-82
2022/01/03 06:17:06;;;;;;;14.00;1.90;;;8.80;99.90;;;;;;4992854;28;20491;-83
2022/01/03 06:19:33;;;;;;;11.48;1.73;;;8.80;99.90;;;;;;4993292;28;20026;-82
2022/01/03 06:21:58;;;;;;;13.05;1.45;;;8.80;99.90;;;;;;4993210;28;20054;-83
2022/01/03 06:24:24;;;;;;;13.02;1.80;;;8.80;99.90;;;;;;4992654;28;20076;-83
2022/01/03 06:26:50;;;;;;;16.77;3.40;;;8.70;99.90;;;;;;4994619;28;20041;-83
2022/01/03 06:29:18;;;;;;;14.63;2.60;;;8.70;99.90;;;;;;4993116;28;20447;-83
2022/01/03 06:31:45;;;;;;;14.40;1.63;;;8.70;99.90;;;;;;4993180;28;20495;-83
2022/01/03 06:34:14;;;;;;;14.45;1.63;;;8.70;99.90;;;;;;4993755;28;20109;-83
2022/01/03 06:36:40;;;;;;;10.13;2.03;;;8.70;99.90;;;;;;4974473;28;20097;-83
2022/01/03 06:39:07;;;;;;;21.13;2.05;;;8.70;99.90;;;;;;4976535;28;20406;-83
2022/01/03 06:41:33;;;;;;;9.10;1.35;;;8.70;99.90;;;;;;4992758;28;20137;-83
2022/01/03 06:43:58;;;;;;;12.60;1.42;;;8.70;99.90;;;;;;4994320;28;20169;-83
2022/01/03 06:46:24;;;;;;;10.70;1.77;;;8.70;99.90;;;;;;4976212;28;20046;-83
2022/01/03 06:48:50;;;;;;;17.30;1.95;;;8.60;99.90;;;;;;4976530;28;20039;-83
2022/01/03 06:51:16;;;;;;;11.77;1.75;;;8.60;99.90;;;;;;4976363;28;20045;-83
2022/01/03 06:53:42;;;;;;;20.58;1.98;;;8.60;99.90;;;;;;4976056;28;20022;-83
2022/01/03 06:56:08;;;;;;;10.73;1.67;;;8.60;99.90;;;;;;4976018;28;20032;-83
2022/01/03 06:58:34;;;;;;;14.50;1.85;;;8.60;99.90;;;;;;4993852;28;20240;-83
2022/01/03 07:01:00;;;;;;;18.38;4.20;;;8.60;99.90;;;;;;4992616;28;20031;-83
2022/01/03 07:03:29;;;;;;;10.68;1.90;;;8.60;99.90;;;;;;4992189;28;20015;-83
2022/01/03 07:05:54;;;;;;;14.93;1.85;;;8.60;99.90;;;;;;4975794;28;20433;-83
2022/01/03 07:08:21;;;;;;;12.40;2.08;;;8.60;99.90;;;;;;4975982;28;20041;-84
2022/01/03 07:10:49;;;;;;;17.50;2.15;;;8.60;99.90;;;;;;4992567;28;20061;-83
2022/01/03 07:13:17;;;;;;;19.27;2.22;;;8.60;99.90;;;;;;4993132;28;20495;-83
2022/01/03 07:21:12;;;;;;;10.35;1.90;;;8.60;99.90;;;;;;4992304;28;20415;-83
2022/01/03 07:23:41;;;;;;;11.50;1.52;;;8.60;99.90;;;;;;4991561;28;20023;-83
2022/01/03 07:26:08;;;;;;;8.90;1.75;;;8.60;99.90;;;;;;4991768;28;20034;-84
2022/01/03 07:28:34;;;;;;;14.32;2.75;;;8.60;99.90;;;;;;4975665;28;20043;-83
2022/01/03 07:30:59;;;;;;;15.30;2.22;;;8.60;99.90;;;;;;4993316;28;20045;-83
2022/01/03 07:33:26;;;;;;;14.95;2.45;;;8.70;99.90;;;;;;4975256;28;20520;-84
2022/01/03 07:35:51;;;;;;;15.85;1.65;;;8.70;99.90;;;;;;4975439;28;20026;-83
2022/01/03 07:38:17;;;;;;;20.95;1.98;;;8.60;99.90;;;;;;5023711;28;20026;-83
2022/01/03 07:40:43;;;;;;;14.77;1.92;;;8.60;99.90;;;;;;4979946;28;20103;-83
2022/01/03 07:43:08;;;;;;;8.57;1.30;;;8.60;99.90;;;;;;4975517;28;20114;-83
2022/01/03 07:45:34;;;;;;;11.23;1.27;;;8.60;99.90;;;;;;4993831;28;20105;-83
2022/01/03 07:47:59;;;;;;;19.35;1.98;;;8.60;99.90;;;;;;5010453;28;20430;-83
2022/01/03 07:50:25;;;;;;;15.77;2.20;;;8.60;99.90;;;;;;5007906;28;20026;-83
2022/01/03 07:52:52;;;;;;;12.57;1.80;;;8.60;99.90;;;;;;4991690;28;20080;-82
2022/01/03 07:55:19;;;;;;;9.82;2.25;;;8.60;99.90;;;;;;5007265;28;20423;-83
2022/01/03 07:57:48;;;;;;;18.45;2.08;;;8.60;99.90;;;;;;5023943;28;20306;-83
2022/01/03 08:00:17;;;;;;;8.90;1.55;;;8.60;99.90;;;;;;5007870;28;20030;-83
2022/01/03 08:02:43;;;;;;;10.48;1.65;;;8.60;99.90;;;;;;5023932;28;20022;-83
2022/01/03 08:05:13;;;;;;;10.60;1.95;;;8.60;99.90;;;;;;4974893;28;20038;-82
2022/01/03 08:07:39;;;;;;;18.45;2.58;;;8.60;99.90;;;;;;5007516;28;20030;-83
2022/01/03 08:10:06;;;;;;;12.68;1.65;;;8.60;99.90;;;;;;5023803;28;20061;-83
2022/01/03 08:12:33;;;;;;;13.82;2.72;;;8.60;99.90;;;;;;5023209;28;20030;-84
2022/01/03 08:14:58;;;;;;;11.70;1.65;;;8.60;99.90;;;;;;4990019;28;20117;-83
2022/01/03 08:17:24;;;;;;;8.10;1.67;;;8.60;99.90;;;;;;4990869;28;20113;-83
2022/01/03 08:19:50;;;;;;;11.88;2.00;;;8.70;99.90;;;;;;4974858;28;20030;-83
2022/01/03 08:22:17;;;;;;;17.77;2.00;;;8.70;99.90;;;;;;4979980;28;20030;-83
2022/01/03 08:24:43;;;;;;;24.27;2.70;;;8.70;99.90;;;;;;4983364;28;20158;-83
2022/01/03 08:27:09;;;;;;;15.60;3.17;;;8.80;99.90;;;;;;4990427;28;20045;-83
2022/01/03 08:29:34;;;;;;;12.82;1.52;;;8.80;99.90;;;;;;4974095;28;20042;-83
2022/01/03 08:32:03;;;;;;;15.48;2.25;;;8.80;99.90;;;;;;4974743;28;20054;-84
2022/01/03 08:34:28;;;;;;;12.70;1.60;;;8.90;99.90;;;;;;4989273;28;20072;-83
2022/01/03 08:36:54;;;;;;;19.42;2.30;;;8.90;99.90;;;;;;4972864;28;20062;-83
2022/01/03 08:39:20;;;;;;;20.13;1.98;;;8.90;99.90;;;;;;4990489;28;20085;-84
2022/01/03 08:41:45;;;;;;;13.32;1.65;;;9.00;99.90;;;;;;4990559;28;20035;-84
2022/01/03 08:44:11;;;;;;;18.08;2.33;;;9.00;99.90;;;;;;4974353;28;20035;-83
2022/01/03 08:46:37;;;;;;;10.10;1.98;;;9.00;99.90;;;;;;4974113;28;20031;-83
2022/01/03 08:49:03;;;;;;;12.70;1.67;;;9.10;99.90;;;;;;4991783;28;20231;-83
2022/01/03 08:51:29;;;;;;;14.57;1.80;;;9.10;99.90;;;;;;4973991;28;20117;-83
2022/01/03 08:53:55;;;;;;;11.13;1.77;;;9.10;99.90;;;;;;4990099;28;20032;-83
2022/01/03 08:56:21;;;;;;;16.00;2.20;;;9.10;99.90;;;;;;4974110;28;20081;-83
2022/01/03 08:58:47;;;;;;;15.00;1.80;;;9.20;99.90;;;;;;4990154;28;20078;-84
2022/01/03 09:01:13;;;;;;;14.00;1.65;;;9.20;99.90;;;;;;4990612;28;20018;-83
2022/01/03 09:03:39;;;;;;;27.08;2.30;;;9.20;99.90;;;;;;4974113;28;20119;-83
2022/01/03 09:06:05;;;;;;;11.27;1.83;;;9.30;99.90;;;;;;4989689;28;20057;-83
2022/01/03 09:08:31;;;;;;;22.13;2.10;;;9.30;99.90;;;;;;4989581;28;20037;-83
2022/01/03 09:10:56;;;;;;;14.85;1.52;;;9.30;99.90;;;;;;4989720;28;20038;-84
2022/01/03 09:13:25;;;;;;;16.33;3.03;;;9.40;99.90;;;;;;4991490;28;20066;-84
2022/01/03 09:15:51;;;;;;;15.90;1.73;;;9.40;99.90;;;;;;4976158;28;20029;-83
2022/01/03 09:18:21;;;;;;;13.98;2.03;;;9.40;99.90;;;;;;4991966;28;20430;-84
2022/01/03 09:20:48;;;;;;;10.80;1.63;;;9.40;99.90;;;;;;4991210;28;20647;-83
2022/01/03 09:23:22;;;;;;;10.10;1.40;;;9.40;99.90;;;;;;4991759;28;20098;-82
2022/01/03 09:31:25;;;;;;;18.83;1.50;;;9.50;99.90;;;;;;4992122;28;20545;-84
2022/01/03 09:33:52;;;;;;;12.80;2.50;;;9.50;99.90;;;;;;4990712;28;20034;-82
2022/01/03 09:36:18;;;;;;;16.38;1.55;;;9.50;99.90;;;;;;4973723;28;20022;-82
2022/01/03 09:38:43;;;;;;;16.75;1.63;;;9.60;99.90;;;;;;4990199;28;20038;-83
2022/01/03 09:41:11;;;;;;;16.58;1.95;;;9.60;99.90;;;;;;4990316;28;20393;-83
2022/01/03 09:43:51;;;;;;;13.43;1.85;;;9.60;99.90;;;;;;4973977;28;20443;-82
2022/01/03 09:46:34;;;;;;;15.05;1.77;;;9.60;99.90;;;;;;4990026;28;20113;-83
2022/01/03 09:48:59;;;;;;;16.00;2.33;;;9.60;99.90;;;;;;4990235;28;20385;-84
2022/01/03 09:51:28;;;;;;;14.85;2.00;;;9.60;99.90;;;;;;4989457;28;20045;-84
2022/01/03 09:53:57;;;;;;;13.00;1.80;;;9.60;99.90;;;;;;4990587;28;20466;-84
2022/01/03 09:56:23;;;;;;;11.60;1.50;;;9.50;99.90;;;;;;4974071;28;20700;-83
2022/01/03 09:58:49;;;;;;;16.30;2.40;;;9.50;99.90;;;;;;4973191;28;20061;-83
2022/01/03 10:01:15;;;;;;;12.35;1.90;;;9.50;99.90;;;;;;4989392;28;20030;-84
2022/01/03 10:03:47;;;;;;;12.77;1.60;;;9.50;99.90;;;;;;4973151;28;20039;-83
2022/01/03 10:06:17;;;;;;;11.70;2.20;;;9.50;99.90;;;;;;4989799;28;20638;-83
2022/01/03 10:08:47;;;;;;;10.32;1.48;;;9.50;99.90;;;;;;4973726;28;20030;-84
2022/01/03 10:11:14;;;;;;;11.50;2.00;;;9.60;99.90;;;;;;4989774;28;20077;-83
2022/01/03 10:13:40;;;;;;;8.30;1.50;;;9.60;99.90;;;;;;4990368;28;20041;-84
2022/01/03 10:16:07;;;;;;;12.07;1.83;;;9.70;99.90;;;;;;4973343;28;20534;-84
2022/01/03 10:18:33;;;;;;;16.25;2.42;;;9.70;99.90;;;;;;4969714;28;20061;-83
2022/01/03 10:21:03;;;;;;;8.32;1.58;;;9.80;99.90;;;;;;4971301;28;20026;-83
2022/01/03 10:23:29;;;;;;;13.30;1.52;;;9.80;99.90;;;;;;4970085;28;20029;-84
2022/01/03 10:26:14;;;;;;;12.48;2.00;;;9.80;99.90;;;;;;4963470;28;20042;-83
2022/01/03 10:28:40;;;;;;;18.20;2.35;;;9.80;99.90;;;;;;4989008;28;20030;-84
2022/01/03 10:31:14;;;;;;;11.10;2.20;;;9.80;99.90;;;;;;4972709;28;20056;-84
2022/01/03 10:33:40;;;;;;;13.50;1.75;;;9.90;99.90;;;;;;4990080;28;20049;-83
2022/01/03 10:36:11;;;;;;;10.93;2.05;;;9.90;99.90;;;;;;4990066;28;20046;-84
2022/01/03 10:38:44;;;;;;;16.33;2.45;;;9.90;99.90;;;;;;4973854;28;20105;-84
2022/01/03 10:41:16;;;;;;;8.98;1.67;;;9.90;99.90;;;;;;4989344;28;20558;-83
2022/01/03 10:43:44;;;;;;;7.93;1.77;;;9.90;99.90;;;;;;4973014;28;20056;-83
2022/01/03 10:46:30;;;;;;;6.53;1.55;;;10.00;99.90;;;;;;4988729;28;20121;-83
2022/01/03 10:49:12;;;;;;;11.57;1.77;;;10.00;99.90;;;;;;4990279;28;20483;-83
2022/01/03 10:51:38;;;;;;;15.65;1.98;;;10.00;99.90;;;;;;4973117;28;20403;-83
2022/01/03 10:54:10;;;;;;;13.52;1.98;;;10.00;99.90;;;;;;4989821;28;20045;-83
2022/01/03 10:56:39;;;;;;;7.38;1.80;;;10.10;99.90;;;;;;4989272;28;20514;-83
2022/01/03 10:59:23;;;;;;;14.65;2.30;;;10.10;99.90;;;;;;4992502;28;20076;-83
2022/01/03 11:02:13;;;;;;;19.50;2.72;;;10.20;99.90;;;;;;5043960;23;20466;-84
2022/01/03 11:04:52;;;;;;;11.55;2.00;;;10.20;99.90;;;;;;5050283;28;20509;-84
2022/01/03 11:10:43;;;;;;;14.85;2.47;;;10.20;99.90;;;;;;5047675;28;20043;-84
2022/01/03 11:13:22;;;;;;;14.20;2.63;;;10.20;99.90;;;;;;5029834;28;20041;-84
2022/01/03 11:15:55;;;;;;;11.48;2.60;;;10.20;99.90;;;;;;5049034;28;20040;-84
2022/01/03 11:18:25;;;;;;;21.98;2.25;;;10.20;99.90;;;;;;5044797;28;20649;-85
2022/01/03 11:21:02;;;;;;;11.27;1.83;;;10.20;99.90;;;;;;5028468;28;20030;-85
2022/01/03 11:23:28;;;;;;;12.15;1.73;;;10.20;99.90;;;;;;5013475;28;20030;-84
2022/01/03 11:25:54;;;;;;;17.10;2.45;;;10.20;99.90;;;;;;5032709;28;20386;-84
2022/01/03 11:28:28;;;;;;;10.80;1.88;;;10.20;99.90;;;;;;5033721;28;20049;-85
2022/01/03 11:30:54;;;;;;;12.27;2.00;;;10.20;99.90;;;;;;5035708;28;20098;-85
2022/01/03 11:33:20;;;;;;;13.85;2.05;;;10.20;99.90;;;;;;4999591;28;20030;-85
2022/01/03 11:35:48;;;;;;;13.35;1.95;;;10.20;99.90;;;;;;4997383;28;20034;-85
2022/01/03 11:38:22;;;;;;;13.60;2.00;;;10.20;99.90;;;;;;5032694;28;20021;-85
2022/01/03 11:40:48;;;;;;;12.68;1.65;;;10.20;99.90;;;;;;5032247;28;20036;-85
2022/01/03 11:43:18;;;;;;;15.75;2.10;;;10.20;99.90;;;;;;5048039;28;20022;-84
2022/01/03 11:45:43;;;;;;;13.35;1.88;;;10.20;99.90;;;;;;5046703;28;20039;-84
2022/01/03 11:48:11;;;;;;;12.10;1.75;;;10.30;99.90;;;;;;5025198;28;20488;-85
2022/01/03 11:50:38;;;;;;;18.08;2.13;;;10.30;99.90;;;;;;5001826;28;20029;-85
2022/01/03 11:53:05;;;;;;;7.72;1.20;;;10.30;99.90;;;;;;5045716;28;20045;-84
2022/01/03 11:55:34;;;;;;;13.40;1.75;;;10.20;99.90;;;;;;5030506;28;20032;-84
2022/01/03 12:03:37;;;;;;;8.27;1.40;;;10.10;99.90;;;;;;5030953;28;20112;-84
2022/01/03 12:06:05;;;;;;;9.32;1.50;;;10.20;99.90;;;;;;5031086;28;20421;-84
2022/01/03 12:08:33;;;;;;;12.15;2.03;;;10.20;99.90;;;;;;5029988;28;20152;-84
2022/01/03 12:11:00;;;;;;;8.88;1.95;;;10.30;99.90;;;;;;5030250;28;20030;-84
2022/01/03 12:13:52;;;;;;;9.02;1.50;;;10.20;99.90;;;;;;5026958;28;20033;-84
2022/01/03 12:16:35;;;;;;;11.32;1.27;;;10.20;99.90;;;;;;5046452;28;20029;-85
2022/01/03 12:19:02;;;;;;;12.57;1.48;;;10.20;99.90;;;;;;5045743;28;20033;-85
2022/01/03 12:21:51;;;;;;;11.82;1.75;;;10.20;99.90;;;;;;5046465;28;20394;-84
2022/01/03 12:24:26;;;;;;;15.88;2.17;;;10.30;99.90;;;;;;5031796;28;20037;-84
2022/01/03 12:27:10;;;;;;;18.20;2.15;;;10.30;99.90;;;;;;5028186;28;20030;-84
2022/01/03 12:29:54;;;;;;;17.80;1.77;;;10.40;99.90;;;;;;5030540;28;20034;-84
2022/01/03 12:32:20;;;;;;;7.75;1.45;;;10.50;99.90;;;;;;5028170;28;20079;-84
2022/01/03 12:35:06;;;;;;;15.20;1.70;;;10.50;99.90;;;;;;5022836;28;20037;-85
2022/01/03 12:37:32;;;;;;;10.32;1.90;;;10.60;99.90;;;;;;5027051;28;20032;-84
2022/01/03 12:40:04;;;;;;;6.45;1.58;;;10.60;99.90;;;;;;5026907;28;20103;-84
2022/01/03 12:43:01;;;;;;;12.85;1.73;;;10.70;99.90;;;;;;5011769;28;20033;-84
2022/01/03 12:45:29;;;;;;;11.32;2.08;;;10.70;99.90;;;;;;5009360;28;20092;-84
2022/01/03 12:48:22;;;;;;;10.00;2.05;;;10.70;99.90;;;;;;5009794;28;20040;-84
2022/01/03 12:50:51;;;;;;;8.45;2.20;;;10.70;99.90;;;;;;5040467;28;20033;-84
2022/01/03 12:53:39;;;;;;;7.43;1.60;;;10.60;99.90;;;;;;5026904;28;20037;-84
2022/01/03 12:56:21;;;;;;;8.60;1.83;;;10.60;99.90;;;;;;5024126;28;20060;-84
2022/01/03 12:58:52;;;;;;;11.98;1.85;;;10.50;99.90;;;;;;5047763;28;20031;-83
2022/01/03 13:01:17;;;;;;;11.48;2.10;;;10.40;99.90;;;;;;5030398;28;20080;-84
2022/01/03 13:03:47;;;;;;;8.88;2.10;;;10.40;99.90;;;;;;5028840;28;20052;-84
2022/01/03 13:06:15;;;;;;;11.65;2.65;;;10.30;99.90;;;;;;5010555;28;20022;-83
2022/01/03 13:08:56;;;;;;;9.18;2.03;;;10.30;99.90;;;;;;5009383;28;20057;-84
2022/01/03 13:11:27;;;;;;;15.98;2.72;;;10.30;99.90;;;;;;5029361;28;20064;-84
2022/01/03 13:13:56;;;;;;;6.30;1.42;;;10.30;99.90;;;;;;5045711;28;20025;-83
2022/01/03 13:16:29;;;;;;;10.20;1.70;;;10.30;99.90;;;;;;5028789;28;20048;-84
2022/01/03 13:18:57;;;;;;;15.15;2.08;;;10.20;99.90;;;;;;5020013;28;20034;-84
2022/01/03 13:21:25;;;;;;;9.50;1.38;;;10.20;99.90;;;;;;5010695;28;20022;-84
2022/01/03 13:23:52;;;;;;;8.57;1.63;;;10.20;99.90;;;;;;5016256;28;20036;-84